Time;durP1;ratioP1;P1;durP2;ratioP2;P2;SDS_P1;SDS_P2;PMS_P1;PMS_P2;Temp;Humidity;BMP_temperature;BMP_pressure;BME280_temperature;BME280_humidity;BME280_pressure;Samples;Min_cycle;Max_cycle;Signal;HPM_P1;HPM_P2
2022/01/08 00:00:22;;;;;;;4.30;3.08;;;;;;;2.31;72.05;96254.09;4941673;29;20059;-82
2022/01/08 00:02:51;;;;;;;4.45;2.97;;;;;;;2.27;71.81;96245.03;4942903;29;20502;-82
2022/01/08 00:05:20;;;;;;;3.53;2.92;;;;;;;2.29;72.83;96250.84;4942190;29;20047;-82
2022/01/08 00:07:48;;;;;;;3.15;2.83;;;;;;;2.31;73.57;96241.22;4941094;29;20498;-79
2022/01/08 00:10:15;;;;;;;3.47;2.28;;;;;;;2.33;73.50;96236.75;4939890;29;20059;-80
2022/01/08 00:12:43;;;;;;;3.08;2.63;;;;;;;2.29;72.69;96234.59;4938999;29;20421;-79
2022/01/08 00:15:11;;;;;;;3.30;3.00;;;;;;;2.27;73.04;96229.59;4938171;29;20055;-80
2022/01/08 00:17:38;;;;;;;3.75;3.42;;;;;;;2.28;73.03;96227.84;4940464;29;20056;-82
2022/01/08 00:20:07;;;;;;;4.55;3.78;;;;;;;2.25;73.83;96228.91;4940900;29;20055;-79
2022/01/08 00:22:36;;;;;;;3.72;2.97;;;;;;;2.23;72.62;96217.94;4941148;29;20525;-82
2022/01/08 00:25:05;;;;;;;4.10;3.50;;;;;;;2.19;72.47;96225.16;4941591;29;20047;-81
2022/01/08 00:27:33;;;;;;;4.70;3.30;;;;;;;2.17;72.82;96218.53;4940626;29;20055;-81
2022/01/08 00:30:00;;;;;;;4.25;3.85;;;;;;;2.17;73.35;96208.22;4940180;29;20055;-80
2022/01/08 00:32:28;;;;;;;3.53;3.22;;;;;;;2.14;72.81;96213.63;4940978;29;20522;-79
2022/01/08 00:34:56;;;;;;;3.80;3.45;;;;;;;2.09;72.65;96226.94;4940056;29;20048;-81
2022/01/08 00:37:23;;;;;;;7.80;3.72;;;;;;;2.05;72.78;96223.81;4940172;29;20048;-81
2022/01/08 00:39:52;;;;;;;5.25;3.45;;;;;;;2.04;73.55;96229.09;4940092;29;20051;-79
2022/01/08 00:42:20;;;;;;;5.10;4.50;;;;;;;2.03;73.82;96227.47;4939808;29;20074;-83
2022/01/08 00:44:47;;;;;;;5.43;4.25;;;;;;;2.06;74.53;96229.78;4940558;29;20048;-82
2022/01/08 00:47:15;;;;;;;3.42;3.13;;;;;;;2.10;73.83;96228.56;4940134;29;20054;-83
2022/01/08 00:49:43;;;;;;;4.25;3.80;;;;;;;2.16;74.56;96227.19;4940173;29;20048;-80
2022/01/08 00:52:10;;;;;;;3.85;3.42;;;;;;;2.19;73.24;96216.63;4939859;29;20059;-81
2022/01/08 00:54:38;;;;;;;4.85;3.42;;;;;;;2.17;72.34;96210.81;4939889;29;20056;-80
2022/01/08 00:57:08;;;;;;;3.50;3.15;;;;;;;2.18;72.26;96209.84;4939953;29;20103;-79
2022/01/08 00:59:36;;;;;;;3.80;3.30;;;;;;;2.21;72.45;96209.59;4940010;29;20047;-79
2022/01/08 01:02:04;;;;;;;4.65;3.35;;;;;;;2.23;72.29;96203.34;4939895;29;20052;-80
2022/01/08 01:04:32;;;;;;;3.25;2.70;;;;;;;2.24;71.33;96209.28;4939952;29;20103;-81
2022/01/08 01:06:59;;;;;;;3.67;3.38;;;;;;;2.22;71.33;96200.91;4939403;29;20074;-84
2022/01/08 01:09:27;;;;;;;4.85;3.60;;;;;;;2.23;72.62;96187.91;4939457;29;20051;-79
2022/01/08 01:11:57;;;;;;;4.35;3.40;;;;;;;2.26;71.95;96186.81;4940609;29;20047;-79
2022/01/08 01:14:26;;;;;;;3.47;3.17;;;;;;;2.20;71.27;96167.56;4939018;29;20052;-80
2022/01/08 01:16:54;;;;;;;5.20;3.45;;;;;;;2.18;71.34;96168.66;4938181;29;20066;-82
2022/01/08 01:19:22;;;;;;;4.63;4.03;;;;;;;2.13;71.06;96168.28;4938349;29;20086;-80
2022/01/08 01:21:51;;;;;;;4.32;3.88;;;;;;;2.06;70.98;96163.69;4938374;29;20058;-80
2022/01/08 01:24:22;;;;;;;4.25;3.50;;;;;;;2.01;71.37;96163.31;4938266;29;20525;-81
2022/01/08 01:27:11;;;;;;;4.95;3.53;;;;;;;2.01;71.03;96157.34;4938230;29;20062;-80
2022/01/08 01:29:50;;;;;;;3.50;3.15;;;;;;;2.02;71.00;96149.47;4938105;29;20537;-81
2022/01/08 01:43:27;;;;;;;4.82;3.38;;;;;;;1.89;70.45;96107.03;4937637;29;20059;-80
2022/01/08 01:48:41;;;;;;;3.17;2.75;;;;;;;1.86;70.90;96108.13;4937795;29;20513;-81
2022/01/08 01:51:18;;;;;;;4.38;3.20;;;;;;;1.91;71.89;96107.69;4937903;29;20502;-80
2022/01/08 01:53:46;;;;;;;3.95;2.88;;;;;;;1.93;71.47;96104.03;4936992;29;20055;-81
2022/01/08 01:56:15;;;;;;;3.97;3.47;;;;;;;1.95;72.69;96096.19;4936952;29;20060;-81
2022/01/08 01:58:43;;;;;;;3.75;2.75;;;;;;;1.96;72.42;96093.44;4937451;29;20059;-81
2022/01/08 02:01:13;;;;;;;4.00;3.40;;;;;;;2.01;73.61;96091.28;4937517;29;20062;-79
2022/01/08 02:03:40;;;;;;;4.97;2.90;;;;;;;2.05;73.01;96092.59;4937043;29;20055;-81
2022/01/08 02:06:09;;;;;;;5.25;3.13;;;;;;;2.06;72.45;96078.78;4937207;29;20055;-80
2022/01/08 02:08:38;;;;;;;4.88;2.95;;;;;;;2.06;71.97;96071.09;4937555;29;20148;-80
2022/01/08 02:11:07;;;;;;;3.95;3.00;;;;;;;2.06;71.66;96067.69;4937566;29;20054;-79
2022/01/08 02:13:36;;;;;;;3.50;3.20;;;;;;;2.03;71.12;96063.66;4936970;29;20425;-78
2022/01/08 02:16:06;;;;;;;4.97;2.67;;;;;;;2.00;71.22;96056.19;4936898;29;20054;-80
2022/01/08 02:18:35;;;;;;;4.43;3.22;;;;;;;1.98;71.28;96045.25;4937432;29;20056;-81
2022/01/08 02:21:04;;;;;;;3.38;2.85;;;;;;;1.97;71.20;96048.78;4937160;29;20056;-80
2022/01/08 02:23:32;;;;;;;4.03;3.17;;;;;;;2.00;71.36;96038.19;4937581;29;20044;-81
2022/01/08 02:26:03;;;;;;;4.80;2.88;;;;;;;2.08;72.62;96042.66;4936841;29;20044;-80
2022/01/08 02:28:31;;;;;;;2.78;2.55;;;;;;;2.13;72.60;96047.38;4937008;29;20066;-80
2022/01/08 02:30:58;;;;;;;4.20;2.70;;;;;;;2.19;73.23;96039.06;4937577;29;20055;-81
2022/01/08 02:33:26;;;;;;;3.08;2.78;;;;;;;2.23;73.26;96043.78;4937016;29;20074;-79
2022/01/08 02:35:54;;;;;;;3.80;3.35;;;;;;;2.26;73.25;96042.69;4936667;29;20403;-80
2022/01/08 02:40:56;;;;;;;3.67;3.05;;;;;;;2.26;73.56;96037.53;4899494;29;20057;-83
2022/01/08 02:43:24;;;;;;;4.32;3.40;;;;;;;2.25;73.38;96041.06;4900409;29;20251;-82
2022/01/08 02:45:52;;;;;;;5.63;3.88;;;;;;;2.20;73.23;96041.47;4900126;29;20052;-83
2022/01/08 02:48:19;;;;;;;4.55;3.88;;;;;;;2.15;73.66;96037.75;4900335;29;20060;-83
2022/01/08 02:50:47;;;;;;;4.82;3.42;;;;;;;2.15;74.07;96027.44;4899781;29;20052;-83
2022/01/08 02:53:14;;;;;;;4.95;3.75;;;;;;;2.15;74.65;96022.31;4900975;29;20063;-82
2022/01/08 02:55:42;;;;;;;3.35;3.05;;;;;;;2.15;74.54;96006.88;4901111;29;20052;-82
2022/01/08 02:58:11;;;;;;;5.18;4.15;;;;;;;2.11;75.30;95993.47;4900874;29;20418;-82
2022/01/08 03:00:39;;;;;;;5.55;4.55;;;;;;;2.06;75.52;95986.19;4900678;29;20075;-82
2022/01/08 03:03:07;;;;;;;7.40;5.10;;;;;;;1.98;75.41;95962.94;4900427;29;20049;-82
2022/01/08 03:05:35;;;;;;;6.30;4.88;;;;;;;1.90;75.39;95955.13;4900344;29;20080;-83
2022/01/08 03:08:02;;;;;;;6.72;4.57;;;;;;;1.81;75.92;95946.50;4899622;29;20401;-83
2022/01/08 03:10:30;;;;;;;6.90;5.35;;;;;;;1.76;76.46;95942.75;4900123;29;20075;-83
2022/01/08 03:12:58;;;;;;;5.78;4.60;;;;;;;1.71;76.13;95927.75;4901295;29;20063;-82
2022/01/08 03:15:28;;;;;;;5.22;4.25;;;;;;;1.62;76.54;95924.28;4900859;29;20057;-85
2022/01/08 03:17:56;;;;;;;6.32;4.50;;;;;;;1.59;76.65;95914.28;4899742;29;20059;-84
2022/01/08 03:20:23;;;;;;;9.18;5.07;;;;;;;1.58;76.95;95911.88;4900094;29;20354;-82
2022/01/08 03:22:58;;;;;;;4.85;4.13;;;;;;;1.55;77.15;95907.00;4899948;29;20056;-83
2022/01/08 03:25:26;;;;;;;6.40;4.43;;;;;;;1.50;77.23;95899.72;4899800;29;20060;-83
2022/01/08 03:27:54;;;;;;;6.20;5.03;;;;;;;1.48;77.50;95891.31;4900157;29;20060;-84
2022/01/08 03:30:22;;;;;;;7.75;5.63;;;;;;;1.51;77.92;95878.22;4899158;29;20060;-85
2022/01/08 03:32:52;;;;;;;6.55;5.20;;;;;;;1.52;77.78;95873.88;4901943;29;20052;-82
2022/01/08 03:35:20;;;;;;;5.70;4.63;;;;;;;1.54;77.77;95872.78;4904507;29;20408;-82
2022/01/08 03:37:48;;;;;;;7.47;5.32;;;;;;;1.55;77.71;95876.97;4903142;29;20056;-83
2022/01/08 03:40:16;;;;;;;6.32;5.38;;;;;;;1.59;78.14;95886.00;4902472;29;20059;-82
2022/01/08 03:42:43;;;;;;;5.78;5.13;;;;;;;1.62;78.11;95888.28;4902993;29;20057;-82
2022/01/08 03:45:11;;;;;;;8.35;4.72;;;;;;;1.61;77.92;95871.22;4902487;29;20055;-82
2022/01/08 03:50:28;;;;;;;7.35;5.18;;;;;;;1.57;78.82;95864.75;4885835;29;20045;-85
2022/01/08 03:52:56;;;;;;;7.60;5.38;;;;;;;1.60;78.58;95854.22;4905169;29;20063;-82
2022/01/08 03:55:23;;;;;;;7.03;5.35;;;;;;;1.62;78.91;95849.72;4904216;29;20522;-82
2022/01/08 03:57:51;;;;;;;9.70;6.18;;;;;;;1.62;78.63;95854.88;4903126;29;20057;-83
2022/01/08 04:00:18;;;;;;;7.90;6.00;;;;;;;1.65;79.17;95856.34;4903020;29;20511;-83
2022/01/08 04:02:46;;;;;;;6.47;5.07;;;;;;;1.68;78.86;95844.97;4902961;29;20056;-82
2022/01/08 04:05:14;;;;;;;5.25;4.57;;;;;;;1.69;78.45;95849.97;4902772;29;20045;-82
2022/01/08 04:07:43;;;;;;;5.93;5.00;;;;;;;1.73;78.05;95851.28;4900947;29;20052;-82
2022/01/08 04:10:10;;;;;;;5.25;4.32;;;;;;;1.77;78.02;95844.06;4900511;29;20060;-82
2022/01/08 04:12:43;;;;;;;6.28;4.60;;;;;;;1.81;77.93;95851.34;4901532;29;20053;-82
2022/01/08 04:15:32;;;;;;;4.20;3.40;;;;;;;1.87;78.09;95852.53;4901227;29;20419;-83
2022/01/08 04:17:59;;;;;;;5.15;4.07;;;;;;;1.91;77.22;95846.16;4902384;29;20060;-82
2022/01/08 04:20:27;;;;;;;6.10;4.20;;;;;;;1.97;77.17;95835.28;4900669;29;20056;-86
2022/01/08 04:22:56;;;;;;;7.82;3.58;;;;;;;2.00;76.78;95847.03;4903979;29;20053;-82
2022/01/08 04:25:25;;;;;;;5.00;4.25;;;;;;;2.01;76.84;95843.50;4903560;29;20060;-82
2022/01/08 04:27:52;;;;;;;3.55;3.25;;;;;;;2.03;77.50;95846.75;4901315;29;20072;-82
2022/01/08 04:30:20;;;;;;;4.68;3.70;;;;;;;2.05;76.94;95855.13;4903108;29;20045;-82
2022/01/08 04:32:48;;;;;;;4.07;3.65;;;;;;;2.06;76.26;95843.88;4901542;29;20522;-81
2022/01/08 04:35:15;;;;;;;4.38;3.63;;;;;;;2.08;76.93;95843.72;4902296;29;20131;-82
2022/01/08 04:37:43;;;;;;;4.00;3.60;;;;;;;2.12;77.70;95847.63;4902645;29;20056;-83
2022/01/08 04:40:13;;;;;;;4.30;3.38;;;;;;;2.15;77.54;95857.63;4904906;29;20059;-82
2022/01/08 04:42:40;;;;;;;4.25;3.03;;;;;;;2.16;77.69;95856.66;4905543;29;20483;-83
2022/01/08 04:45:09;;;;;;;3.20;2.90;;;;;;;2.19;77.89;95858.97;4903995;29;20049;-82
2022/01/08 04:47:37;;;;;;;2.63;2.42;;;;;;;2.20;77.58;95853.66;4904295;29;20446;-83
2022/01/08 04:50:05;;;;;;;3.53;3.22;;;;;;;2.23;77.40;95858.50;4904527;29;20058;-87
2022/01/08 04:52:33;;;;;;;3.28;2.60;;;;;;;2.24;77.46;95844.69;4904026;29;20460;-82
2022/01/08 04:55:00;;;;;;;4.00;3.40;;;;;;;2.27;77.78;95851.28;4903481;29;20056;-85
2022/01/08 04:57:29;;;;;;;3.33;2.63;;;;;;;2.30;78.04;95843.28;4903544;29;20056;-82
2022/01/08 04:59:57;;;;;;;3.08;2.42;;;;;;;2.33;78.14;95844.75;4904925;29;20053;-82
2022/01/08 05:02:25;;;;;;;3.13;2.83;;;;;;;2.36;78.56;95853.00;4905319;29;20059;-82
2022/01/08 05:04:53;;;;;;;2.60;2.40;;;;;;;2.37;77.60;95844.31;4903566;29;20053;-82
2022/01/08 05:07:20;;;;;;;3.15;2.90;;;;;;;2.36;77.83;95847.84;4903555;29;20061;-83
2022/01/08 05:09:48;;;;;;;3.17;2.88;;;;;;;2.35;77.77;95845.41;4903884;29;20051;-81
2022/01/08 05:12:15;;;;;;;2.47;2.17;;;;;;;2.36;77.49;95844.44;4902438;29;20048;-82
2022/01/08 05:14:44;;;;;;;2.50;2.30;;;;;;;2.36;77.12;95849.59;4903151;29;20053;-83
2022/01/08 05:17:14;;;;;;;2.17;1.98;;;;;;;2.34;77.48;95849.75;4902477;29;20407;-83
2022/01/08 05:19:46;;;;;;;2.28;2.08;;;;;;;2.32;77.33;95845.69;4902515;29;20064;-81
2022/01/08 05:22:23;;;;;;;3.03;2.08;;;;;;;2.28;77.66;95844.41;4902395;29;20053;-82
2022/01/08 05:24:51;;;;;;;2.28;2.08;;;;;;;2.27;78.11;95843.56;4902710;29;20055;-82
2022/01/08 05:27:19;;;;;;;2.90;2.50;;;;;;;2.27;78.60;95848.72;4902624;29;20423;-82
2022/01/08 05:29:50;;;;;;;2.30;2.17;;;;;;;2.29;78.96;95844.22;4902719;29;20518;-82
2022/01/08 05:32:20;;;;;;;2.33;2.13;;;;;;;2.31;78.70;95839.75;4902724;29;20065;-81
2022/01/08 05:34:49;;;;;;;1.85;1.75;;;;;;;2.33;78.61;95842.19;4904995;29;20063;-87
2022/01/08 05:37:19;;;;;;;2.25;2.05;;;;;;;2.34;78.54;95849.75;4913663;29;20059;-87
2022/01/08 05:39:47;;;;;;;1.80;1.70;;;;;;;2.37;78.81;95841.72;4914328;29;20049;-87
2022/01/08 05:42:15;;;;;;;1.95;1.75;;;;;;;2.39;78.56;95850.09;4914220;29;20056;-86
2022/01/08 05:44:43;;;;;;;2.33;2.13;;;;;;;2.42;78.62;95854.16;4913698;29;20059;-86
2022/01/08 05:47:13;;;;;;;1.70;1.52;;;;;;;2.42;78.26;95859.28;4914331;29;20084;-86
2022/01/08 05:49:41;;;;;;;2.08;1.95;;;;;;;2.42;77.76;95852.38;4913629;29;20057;-86
2022/01/08 05:52:09;;;;;;;2.35;2.15;;;;;;;2.44;78.08;95860.75;4913153;29;20052;-83
2022/01/08 05:54:37;;;;;;;1.83;1.73;;;;;;;2.46;78.27;95864.00;4911295;29;20053;-83
2022/01/08 05:57:06;;;;;;;1.80;1.70;;;;;;;2.51;78.04;95865.31;4912279;29;20055;-88
2022/01/08 05:59:34;;;;;;;2.15;1.92;;;;;;;2.53;78.38;95869.34;4917677;29;20046;-88
2022/01/08 06:02:02;;;;;;;2.00;1.80;;;;;;;2.57;78.74;95865.53;4918625;29;20028;-87
2022/01/08 06:04:32;;;;;;;2.00;1.80;;;;;;;2.58;78.58;95874.88;4918624;29;20094;-86
2022/01/08 06:06:59;;;;;;;3.55;2.53;;;;;;;2.61;78.68;95879.72;4917308;29;20052;-86
2022/01/08 06:09:27;;;;;;;2.85;2.22;;;;;;;2.65;78.75;95877.66;4914552;29;20052;-87
2022/01/08 06:11:55;;;;;;;2.05;1.92;;;;;;;2.70;79.04;95880.59;4913076;29;20052;-86
2022/01/08 06:14:23;;;;;;;2.20;2.00;;;;;;;2.75;79.12;95888.66;4912013;29;20055;-83
2022/01/08 06:16:50;;;;;;;2.10;1.83;;;;;;;2.78;78.53;95893.53;4914028;29;20059;-84
2022/01/08 06:19:18;;;;;;;2.42;1.67;;;;;;;2.80;78.75;95893.34;4908332;29;20060;-82
2022/01/08 06:21:47;;;;;;;1.92;1.75;;;;;;;2.81;78.98;95898.34;4904775;29;20052;-82
2022/01/08 06:24:15;;;;;;;2.75;2.00;;;;;;;2.85;79.10;95909.97;4905222;29;20060;-82
2022/01/08 06:26:43;;;;;;;2.70;2.20;;;;;;;2.86;78.56;95911.63;4903949;29;20044;-83
2022/01/08 06:29:11;;;;;;;2.33;2.13;;;;;;;2.86;78.78;95926.25;4905718;29;20055;-83
2022/01/08 06:31:38;;;;;;;2.38;1.80;;;;;;;2.85;78.74;95929.78;4904520;29;20064;-82
2022/01/08 06:34:06;;;;;;;4.40;1.38;;;;;;;2.83;78.84;95935.09;4904287;29;20097;-82
2022/01/08 06:36:34;;;;;;;0.90;0.90;;;;;;;2.82;78.99;95935.22;4903122;29;20146;-82
2022/01/08 06:39:04;;;;;;;0.98;0.95;;;;;;;2.80;78.88;95927.66;4903679;29;20064;-82
2022/01/08 06:41:31;;;;;;;0.90;0.90;;;;;;;2.80;79.13;95942.28;4903539;29;20048;-82
2022/01/08 06:43:59;;;;;;;0.73;0.57;;;;;;;2.80;78.91;95945.69;4903179;29;20059;-83
2022/01/08 06:46:27;;;;;;;0.52;0.40;;;;;;;2.77;79.13;95953.69;4906207;29;20044;-82
2022/01/08 06:48:55;;;;;;;0.38;0.38;;;;;;;2.75;78.89;95958.19;4908951;29;20063;-83
2022/01/08 06:51:23;;;;;;;0.20;0.20;;;;;;;2.75;78.96;95963.34;4909112;29;20057;-82
2022/01/08 06:53:50;;;;;;;0.28;0.28;;;;;;;2.74;78.99;95972.03;4907499;29;20056;-81
2022/01/08 06:56:20;;;;;;;0.22;0.22;;;;;;;2.72;79.23;95966.22;4907540;29;20053;-82
2022/01/08 06:58:48;;;;;;;0.28;0.28;;;;;;;2.70;79.33;95986.16;4909354;29;20592;-82
2022/01/08 07:01:15;;;;;;;0.20;0.20;;;;;;;2.68;79.06;95985.50;4908150;29;20062;-84
2022/01/08 07:03:43;;;;;;;0.20;0.20;;;;;;;2.65;78.97;95990.97;4908658;29;20060;-85
2022/01/08 07:06:11;;;;;;;0.20;0.20;;;;;;;2.63;79.00;95990.28;4907539;29;20059;-82
2022/01/08 07:08:40;;;;;;;0.35;0.35;;;;;;;2.63;79.46;95996.25;4910381;29;20053;-82
2022/01/08 07:11:07;;;;;;;0.20;0.20;;;;;;;2.62;79.20;95997.22;4910314;29;20049;-82
2022/01/08 07:13:37;;;;;;;0.20;0.20;;;;;;;2.61;78.91;96002.50;4907248;29;20423;-81
2022/01/08 07:16:06;;;;;;;0.60;0.60;;;;;;;2.59;78.73;96017.28;4909712;29;20052;-82
2022/01/08 07:18:34;;;;;;;0.30;0.30;;;;;;;2.55;78.52;96016.75;4911307;29;20060;-85
2022/01/08 07:21:02;;;;;;;0.50;0.50;;;;;;;2.54;78.93;96024.66;4911352;29;20423;-82
2022/01/08 07:23:29;;;;;;;0.50;0.50;;;;;;;2.53;78.70;96033.31;4910150;29;20060;-83
2022/01/08 07:25:57;;;;;;;0.50;0.50;;;;;;;2.51;78.76;96040.38;4910370;29;20049;-82
2022/01/08 07:28:25;;;;;;;0.65;0.65;;;;;;;2.47;78.83;96045.81;4910601;29;20520;-82
2022/01/08 07:30:54;;;;;;;0.95;0.73;;;;;;;2.43;79.48;96059.13;4911035;29;20056;-86
2022/01/08 07:33:21;;;;;;;0.50;0.50;;;;;;;2.42;79.24;96078.09;4909104;29;20056;-81
2022/01/08 07:35:49;;;;;;;1.08;1.00;;;;;;;2.40;79.28;96074.84;4907967;29;20057;-85
2022/01/08 07:38:17;;;;;;;0.70;0.70;;;;;;;2.39;79.51;96086.91;4909147;29;20538;-83
2022/01/08 07:40:44;;;;;;;1.10;1.10;;;;;;;2.39;79.73;96098.97;4908255;29;20066;-85
2022/01/08 07:43:12;;;;;;;1.20;1.20;;;;;;;2.34;79.33;96104.56;4908678;29;20060;-82
2022/01/08 07:45:40;;;;;;;1.20;1.10;;;;;;;2.33;79.35;96108.06;4908903;29;20112;-82
2022/01/08 07:48:09;;;;;;;1.58;1.48;;;;;;;2.33;79.53;96112.41;4908605;29;20055;-82
2022/01/08 07:50:41;;;;;;;1.30;1.20;;;;;;;2.32;79.83;96129.63;4908880;29;20404;-82
2022/01/08 07:53:08;;;;;;;1.50;1.40;;;;;;;2.32;79.61;96128.78;4908221;29;20052;-82
2022/01/08 07:55:36;;;;;;;1.35;1.25;;;;;;;2.30;79.29;96143.59;4907695;29;20407;-82
2022/01/08 07:58:04;;;;;;;1.08;1.08;;;;;;;2.28;79.61;96143.72;4909205;29;20052;-84
2022/01/08 08:00:36;;;;;;;1.05;1.05;;;;;;;2.25;79.37;96151.72;4910161;29;20075;-82
2022/01/08 08:03:03;;;;;;;1.02;1.02;;;;;;;2.18;78.93;96156.59;4908076;29;20056;-82
2022/01/08 08:05:33;;;;;;;1.75;1.65;;;;;;;2.06;79.20;96174.00;4903616;29;20068;-82
2022/01/08 08:08:00;;;;;;;2.08;1.98;;;;;;;1.98;79.31;96189.28;4901019;29;20183;-82
2022/01/08 08:10:29;;;;;;;2.78;2.45;;;;;;;1.93;79.28;96181.19;4903631;29;20515;-82
2022/01/08 08:12:57;;;;;;;1.80;1.70;;;;;;;1.88;79.39;96185.94;4903134;29;20056;-81
2022/01/08 08:15:24;;;;;;;1.98;1.52;;;;;;;1.83;79.31;96185.53;4903421;29;20044;-81
2022/01/08 08:17:53;;;;;;;1.60;1.50;;;;;;;1.80;80.07;96203.81;4901991;29;20060;-81
2022/01/08 08:20:21;;;;;;;2.67;2.47;;;;;;;1.79;79.78;96209.91;4902170;29;20104;-81
2022/01/08 08:22:50;;;;;;;1.83;1.73;;;;;;;1.76;80.18;96217.91;4903430;29;20053;-81
2022/01/08 08:25:17;;;;;;;2.15;1.98;;;;;;;1.74;80.51;96218.03;4903374;29;20048;-81
2022/01/08 08:27:45;;;;;;;1.83;1.73;;;;;;;1.68;80.09;96228.84;4904267;29;20049;-82
2022/01/08 08:30:13;;;;;;;2.25;1.70;;;;;;;1.64;80.47;96238.59;4904821;29;20499;-81
2022/01/08 08:32:41;;;;;;;2.00;1.80;;;;;;;1.59;80.29;96238.19;4903748;29;20067;-81
2022/01/08 08:35:09;;;;;;;3.85;2.40;;;;;;;1.58;80.17;96252.00;4905104;29;20486;-82
2022/01/08 08:37:38;;;;;;;1.60;1.50;;;;;;;1.57;80.51;96259.84;4904967;29;20066;-82
2022/01/08 08:40:12;;;;;;;2.00;1.60;;;;;;;1.52;80.50;96260.22;4918696;29;20072;-82
2022/01/08 08:42:41;;;;;;;1.60;1.50;;;;;;;1.51;80.43;96286.91;4921079;29;20056;-82
2022/01/08 08:45:09;;;;;;;2.53;1.73;;;;;;;1.51;80.89;96289.47;4921434;29;20049;-81
2022/01/08 08:47:39;;;;;;;2.42;1.52;;;;;;;1.52;80.33;96296.22;4920418;29;20056;-81
2022/01/08 08:50:09;;;;;;;2.03;1.58;;;;;;;1.51;80.21;96298.91;4920410;29;20083;-80
2022/01/08 08:52:36;;;;;;;4.65;1.90;;;;;;;1.50;79.89;96310.97;4920408;29;20068;-84
2022/01/08 08:55:05;;;;;;;2.70;1.98;;;;;;;1.47;79.61;96313.81;4920446;29;20052;-87
2022/01/08 08:57:35;;;;;;;14.45;7.72;;;;;;;1.48;80.07;96327.47;4912614;29;20048;-79
2022/01/08 09:00:04;;;;;;;2.05;1.83;;;;;;;1.47;80.00;96334.38;4902336;29;20059;-80
2022/01/08 09:02:31;;;;;;;4.80;3.03;;;;;;;1.48;79.93;96335.19;4902790;29;20056;-82
2022/01/08 09:04:59;;;;;;;1.73;1.50;;;;;;;1.48;79.58;96351.41;4951942;23;20052;-87
2022/01/08 09:07:28;;;;;;;3.17;2.05;;;;;;;1.50;79.69;96353.84;4943045;29;20052;-84
2022/01/08 09:09:56;;;;;;;2.40;2.20;;;;;;;1.49;79.45;96363.34;4941890;29;20064;-86
2022/01/08 09:12:25;;;;;;;3.50;1.92;;;;;;;1.50;79.45;96354.66;4940077;29;20058;-83
2022/01/08 09:14:54;;;;;;;2.30;2.03;;;;;;;1.51;80.08;96366.59;4926885;29;20060;-85
2022/01/08 09:17:24;;;;;;;3.00;2.15;;;;;;;1.55;79.87;96373.09;4920632;29;20115;-87
2022/01/08 09:19:52;;;;;;;28.50;15.07;;;;;;;1.53;78.99;96380.13;4922816;29;20052;-81
2022/01/08 09:22:23;;;;;;;2.35;2.15;;;;;;;1.51;78.33;96382.00;4926011;29;20056;-87
2022/01/08 09:24:54;;;;;;;2.92;2.60;;;;;;;1.49;79.30;96394.19;4927199;29;20055;-82
2022/01/08 09:27:23;;;;;;;3.55;3.00;;;;;;;1.50;79.92;96411.22;4927110;29;20135;-87
2022/01/08 09:29:51;;;;;;;3.05;2.58;;;;;;;1.51;79.96;96407.72;4928053;29;20112;-90
2022/01/08 09:32:25;;;;;;;3.22;2.92;;;;;;;1.55;80.32;96421.09;4923296;29;20142;-91
2022/01/08 09:34:53;;;;;;;3.72;3.13;;;;;;;1.57;80.45;96421.78;4921023;29;20127;-85
2022/01/08 09:37:23;;;;;;;4.15;3.20;;;;;;;1.59;80.84;96420.72;4920678;29;20048;-89
2022/01/08 09:39:57;;;;;;;5.18;3.55;;;;;;;1.61;80.23;96429.09;4921224;29;20052;-90
2022/01/08 09:42:27;;;;;;;3.58;3.03;;;;;;;1.60;79.40;96427.50;4922541;29;20095;-85
2022/01/08 09:45:05;;;;;;;3.92;3.35;;;;;;;1.59;79.89;96438.72;4924156;29;20138;-88
2022/01/08 09:47:34;;;;;;;5.97;3.90;;;;;;;1.63;80.27;96437.50;4920176;29;20063;-84
2022/01/08 09:50:17;;;;;;;5.60;3.85;;;;;;;1.68;80.78;96444.81;4920461;29;20060;-89
2022/01/08 09:52:57;;;;;;;6.82;4.20;;;;;;;1.73;80.13;96447.00;4922623;29;20504;-82
2022/01/08 09:55:26;;;;;;;7.88;4.78;;;;;;;1.72;79.92;96442.81;4920673;29;20074;-80
2022/01/08 09:58:07;;;;;;;5.45;4.75;;;;;;;1.72;81.05;96446.19;4922752;29;20146;-84
2022/01/08 10:00:39;;;;;;;5.28;4.35;;;;;;;1.75;80.49;96439.97;4920456;29;20419;-82
2022/01/08 10:03:17;;;;;;;8.90;5.30;;;;;;;1.77;80.31;96444.06;4919796;29;20426;-82
2022/01/08 10:05:46;;;;;;;9.13;5.38;;;;;;;1.81;80.41;96444.59;4919728;29;20502;-79
2022/01/08 10:08:33;;;;;;;7.07;4.80;;;;;;;1.84;80.53;96445.16;4920423;29;20056;-78
2022/01/08 10:11:04;;;;;;;6.45;4.50;;;;;;;1.85;80.47;96451.13;4919857;29;20463;-80
2022/01/08 10:13:35;;;;;;;7.30;4.32;;;;;;;1.84;79.84;96450.31;4920615;29;20051;-81
2022/01/08 10:18:50;;;;;;;6.18;4.97;;;;;;;1.83;79.96;96443.53;4922856;29;20052;-83
2022/01/08 10:21:21;;;;;;;9.63;3.75;;;;;;;1.82;79.37;96447.06;4928543;29;20052;-86
2022/01/08 10:23:51;;;;;;;7.10;4.15;;;;;;;1.83;79.39;96453.81;4929657;29;20060;-80
2022/01/08 10:26:20;;;;;;;5.10;3.80;;;;;;;1.85;79.21;96456.25;4940101;29;20062;-83
2022/01/08 10:28:50;;;;;;;4.75;3.67;;;;;;;1.85;79.68;96448.53;4924195;29;20059;-82
2022/01/08 10:31:21;;;;;;;5.95;3.50;;;;;;;1.87;79.23;96451.81;4921030;29;20056;-85
2022/01/08 10:33:52;;;;;;;6.65;3.95;;;;;;;1.91;79.60;96449.78;4920477;29;20422;-81
2022/01/08 10:36:26;;;;;;;6.38;3.55;;;;;;;1.95;78.70;96451.97;4927297;29;20063;-81
2022/01/08 10:38:56;;;;;;;5.88;3.20;;;;;;;1.98;78.18;96461.19;4939460;29;20060;-85
2022/01/08 10:41:25;;;;;;;4.43;3.13;;;;;;;2.05;78.65;96459.69;4939048;29;20060;-80
2022/01/08 10:44:06;;;;;;;5.43;3.53;;;;;;;2.21;78.00;96472.06;4942355;29;20067;-81
2022/01/08 10:46:34;;;;;;;6.03;2.95;;;;;;;2.32;77.85;96477.09;4942245;29;20067;-84
2022/01/08 10:49:04;;;;;;;4.20;2.45;;;;;;;2.32;77.34;96469.38;4942722;29;20098;-87
2022/01/08 10:51:36;;;;;;;30.88;17.17;;;;;;;2.33;77.49;96467.63;4942397;29;20059;-86
2022/01/08 10:54:08;;;;;;;13.40;4.32;;;;;;;2.34;77.34;96467.50;4929029;29;20430;-83
2022/01/08 10:56:38;;;;;;;6.15;3.15;;;;;;;2.39;78.21;96472.22;4922328;29;20052;-79
2022/01/08 10:59:12;;;;;;;5.07;2.78;;;;;;;2.42;77.78;96470.19;4923358;29;20071;-88
2022/01/08 11:01:56;;;;;;;6.90;3.08;;;;;;;2.48;78.71;96472.22;4923565;29;20052;-87
2022/01/08 11:04:40;;;;;;;4.30;3.22;;;;;;;2.55;77.48;96477.66;4922146;29;20055;-81
2022/01/08 11:07:11;;;;;;;4.40;2.85;;;;;;;2.60;77.52;96467.78;4923442;29;20056;-83
2022/01/08 11:09:40;;;;;;;2.92;2.42;;;;;;;2.61;76.46;96473.72;4922685;29;20055;-81
2022/01/08 11:12:13;;;;;;;3.85;2.35;;;;;;;2.59;75.66;96480.78;4922678;29;20067;-85
2022/01/08 11:17:30;;;;;;;4.55;2.33;;;;;;;2.59;76.01;96467.91;4922211;29;20056;-82
2022/01/08 11:20:03;;;;;;;3.95;2.42;;;;;;;2.65;76.39;96468.19;4922967;29;20055;-82
2022/01/08 11:22:33;;;;;;;3.47;2.72;;;;;;;2.68;75.34;96465.31;4923976;29;20418;-84
2022/01/08 11:25:04;;;;;;;5.47;2.83;;;;;;;2.71;76.35;96459.06;4922932;29;20391;-83
2022/01/08 11:27:44;;;;;;;5.30;2.70;;;;;;;2.74;76.12;96469.13;4930333;29;20433;-81
2022/01/08 11:30:19;;;;;;;6.85;3.25;;;;;;;2.79;75.54;96466.94;4941877;29;20085;-86
2022/01/08 11:32:48;;;;;;;12.35;6.32;;;;;;;2.82;75.84;96465.84;4942206;29;20090;-80
2022/01/08 11:35:36;;;;;;;41.67;22.52;;;;;;;2.89;76.23;96470.34;4941093;29;20056;-79
2022/01/08 11:38:07;;;;;;;8.35;5.47;;;;;;;3.03;76.67;96469.09;4941245;29;20059;-79
2022/01/08 11:40:37;;;;;;;5.22;3.10;;;;;;;3.20;75.69;96472.72;4941965;29;20047;-82
2022/01/08 11:43:07;;;;;;;4.30;3.15;;;;;;;3.38;75.21;96456.53;4941347;29;20059;-79
2022/01/08 11:45:36;;;;;;;6.15;3.08;;;;;;;3.45;74.94;96460.19;4941579;29;20434;-80
2022/01/08 11:48:07;;;;;;;8.95;3.55;;;;;;;3.45;74.86;96462.75;4941534;29;20055;-79
2022/01/08 11:50:37;;;;;;;5.55;3.05;;;;;;;3.45;74.01;96457.59;4941541;29;20421;-84
2022/01/08 11:53:19;;;;;;;3.53;2.60;;;;;;;3.42;72.49;96457.91;4941600;29;20055;-78
2022/01/08 11:55:49;;;;;;;6.32;3.70;;;;;;;3.41;74.49;96451.94;4941018;29;20059;-80
2022/01/08 11:58:19;;;;;;;4.53;2.70;;;;;;;3.41;74.68;96458.84;4941406;29;20059;-78
2022/01/08 12:00:52;;;;;;;5.43;3.22;;;;;;;3.41;74.72;96449.34;4940773;29;20055;-83
2022/01/08 12:03:21;;;;;;;5.70;3.03;;;;;;;3.46;73.47;96448.94;4941004;29;20052;-87
2022/01/08 12:05:51;;;;;;;4.82;2.80;;;;;;;3.55;73.81;96444.69;4940695;29;20391;-81
2022/01/08 12:08:19;;;;;;;4.55;2.00;;;;;;;3.50;73.67;96443.34;4940584;29;20070;-78
2022/01/08 12:10:57;;;;;;;4.32;3.22;;;;;;;3.46;72.70;96444.56;4941023;29;20048;-82
2022/01/08 12:13:45;;;;;;;2.58;1.67;;;;;;;3.56;73.10;96439.38;4940539;29;20062;-85
2022/01/08 12:16:34;;;;;;;3.13;2.20;;;;;;;3.73;71.93;96440.41;4924132;29;20052;-83